sensor_id;sensor_type;location;lat;lon;timestamp;temperature;humidity
9201;DHT22;4635;48.686;9.008;2022-12-07T00:02:22;2.50;1.00
9201;DHT22;4635;48.686;9.008;2022-12-07T00:24:23;2.50;1.00
9201;DHT22;4635;48.686;9.008;2022-12-07T00:27:05;2.60;1.00
9201;DHT22;4635;48.686;9.008;2022-12-07T00:29:36;2.60;1.00
9201;DHT22;4635;48.686;9.008;2022-12-07T00:32:11;2.50;1.00
9201;DHT22;4635;48.686;9.008;2022-12-07T00:34:53;2.50;1.00
9201;DHT22;4635;48.686;9.008;2022-12-07T00:37:22;2.50;1.00
9201;DHT22;4635;48.686;9.008;2022-12-07T00:40:30;2.60;1.00
9201;DHT22;4635;48.686;9.008;2022-12-07T00:43:16;2.60;1.00
9201;DHT22;4635;48.686;9.008;2022-12-07T00:45:46;2.70;1.00
9201;DHT22;4635;48.686;9.008;2022-12-07T00:48:29;2.70;1.00
9201;DHT22;4635;48.686;9.008;2022-12-07T00:51:12;2.70;1.00
9201;DHT22;4635;48.686;9.008;2022-12-07T00:53:44;2.70;1.00
9201;DHT22;4635;48.686;9.008;2022-12-07T00:56:32;2.70;1.00
9201;DHT22;4635;48.686;9.008;2022-12-07T00:59:13;2.60;1.00
9201;DHT22;4635;48.686;9.008;2022-12-07T01:01:51;2.60;1.00
9201;DHT22;4635;48.686;9.008;2022-12-07T01:04:38;2.70;1.00
9201;DHT22;4635;48.686;9.008;2022-12-07T01:07:34;2.70;1.00
9201;DHT22;4635;48.686;9.008;2022-12-07T01:10:26;2.60;1.00
9201;DHT22;4635;48.686;9.008;2022-12-07T01:23:14;2.60;1.00
9201;DHT22;4635;48.686;9.008;2022-12-07T01:26:09;2.60;1.00
9201;DHT22;4635;48.686;9.008;2022-12-07T01:29:02;2.60;1.00
9201;DHT22;4635;48.686;9.008;2022-12-07T01:31:48;2.70;1.00
9201;DHT22;4635;48.686;9.008;2022-12-07T01:34:32;2.70;1.00
9201;DHT22;4635;48.686;9.008;2022-12-07T01:37:16;2.70;1.00
9201;DHT22;4635;48.686;9.008;2022-12-07T01:43:20;2.70;1.00
9201;DHT22;4635;48.686;9.008;2022-12-07T01:46:06;2.70;1.00
9201;DHT22;4635;48.686;9.008;2022-12-07T01:48:49;2.70;1.00
9201;DHT22;4635;48.686;9.008;2022-12-07T01:51:32;2.70;1.00
9201;DHT22;4635;48.686;9.008;2022-12-07T01:54:07;2.60;1.00
9201;DHT22;4635;48.686;9.008;2022-12-07T01:56:40;2.50;1.00
9201;DHT22;4635;48.686;9.008;2022-12-07T01:59:50;2.60;1.00
9201;DHT22;4635;48.686;9.008;2022-12-07T02:02:26;2.60;1.00
9201;DHT22;4635;48.686;9.008;2022-12-07T02:05:11;2.60;1.00
9201;DHT22;4635;48.686;9.008;2022-12-07T02:07:58;2.60;1.00
9201;DHT22;4635;48.686;9.008;2022-12-07T02:10:42;2.50;1.00
9201;DHT22;4635;48.686;9.008;2022-12-07T02:13:27;2.50;1.00
9201;DHT22;4635;48.686;9.008;2022-12-07T02:16:23;2.50;1.00
9201;DHT22;4635;48.686;9.008;2022-12-07T02:19:14;2.50;1.00
9201;DHT22;4635;48.686;9.008;2022-12-07T02:22:12;2.50;1.00
9201;DHT22;4635;48.686;9.008;2022-12-07T02:25:11;2.60;1.00
9201;DHT22;4635;48.686;9.008;2022-12-07T02:28:05;2.60;1.00
9201;DHT22;4635;48.686;9.008;2022-12-07T02:49:54;2.50;1.00
9201;DHT22;4635;48.686;9.008;2022-12-07T02:52:43;2.50;1.00
9201;DHT22;4635;48.686;9.008;2022-12-07T02:55:31;2.90;1.00
9201;DHT22;4635;48.686;9.008;2022-12-07T02:58:23;2.50;1.00
9201;DHT22;4635;48.686;9.008;2022-12-07T03:01:21;2.40;1.00
9201;DHT22;4635;48.686;9.008;2022-12-07T03:04:17;2.40;1.00
9201;DHT22;4635;48.686;9.008;2022-12-07T03:13:41;2.30;1.00
9201;DHT22;4635;48.686;9.008;2022-12-07T03:16:27;2.30;1.00
9201;DHT22;4635;48.686;9.008;2022-12-07T03:19:15;2.30;1.00
9201;DHT22;4635;48.686;9.008;2022-12-07T03:21:55;2.30;1.00
9201;DHT22;4635;48.686;9.008;2022-12-07T03:24:28;2.30;1.00
9201;DHT22;4635;48.686;9.008;2022-12-07T03:27:18;2.30;1.00
9201;DHT22;4635;48.686;9.008;2022-12-07T03:42:46;2.30;1.00
9201;DHT22;4635;48.686;9.008;2022-12-07T03:45:36;2.30;1.00
9201;DHT22;4635;48.686;9.008;2022-12-07T03:48:24;2.20;1.00
9201;DHT22;4635;48.686;9.008;2022-12-07T03:51:18;2.20;1.00
9201;DHT22;4635;48.686;9.008;2022-12-07T03:54:14;2.10;1.00
9201;DHT22;4635;48.686;9.008;2022-12-07T03:56:58;2.20;1.00
9201;DHT22;4635;48.686;9.008;2022-12-07T03:59:51;2.20;1.00
9201;DHT22;4635;48.686;9.008;2022-12-07T04:02:36;2.20;1.00
9201;DHT22;4635;48.686;9.008;2022-12-07T04:05:28;2.20;1.00
9201;DHT22;4635;48.686;9.008;2022-12-07T04:08:13;2.10;1.00
9201;DHT22;4635;48.686;9.008;2022-12-07T04:10:54;2.20;1.00
9201;DHT22;4635;48.686;9.008;2022-12-07T04:13:36;2.20;1.00
9201;DHT22;4635;48.686;9.008;2022-12-07T04:29:27;2.00;1.00
9201;DHT22;4635;48.686;9.008;2022-12-07T04:32:14;1.80;1.00
9201;DHT22;4635;48.686;9.008;2022-12-07T04:35:02;2.20;1.00
9201;DHT22;4635;48.686;9.008;2022-12-07T04:37:52;2.10;1.00
9201;DHT22;4635;48.686;9.008;2022-12-07T04:40:38;2.20;1.00
9201;DHT22;4635;48.686;9.008;2022-12-07T04:43:23;2.10;1.00
9201;DHT22;4635;48.686;9.008;2022-12-07T04:52:54;2.00;1.00
9201;DHT22;4635;48.686;9.008;2022-12-07T04:55:36;1.90;1.00
9201;DHT22;4635;48.686;9.008;2022-12-07T04:58:27;1.90;1.00
9201;DHT22;4635;48.686;9.008;2022-12-07T05:01:02;2.00;1.00
9201;DHT22;4635;48.686;9.008;2022-12-07T05:03:33;1.90;1.00
9201;DHT22;4635;48.686;9.008;2022-12-07T05:06:11;1.80;1.00
9201;DHT22;4635;48.686;9.008;2022-12-07T05:08:42;1.70;1.00
9201;DHT22;4635;48.686;9.008;2022-12-07T05:11:19;1.60;1.00
9201;DHT22;4635;48.686;9.008;2022-12-07T05:14:12;1.60;1.00
9201;DHT22;4635;48.686;9.008;2022-12-07T05:16:57;1.50;1.00
9201;DHT22;4635;48.686;9.008;2022-12-07T05:19:53;1.50;1.00
9201;DHT22;4635;48.686;9.008;2022-12-07T05:23:09;1.50;1.00
9201;DHT22;4635;48.686;9.008;2022-12-07T05:36:56;1.50;1.00
9201;DHT22;4635;48.686;9.008;2022-12-07T05:39:25;1.30;1.00
9201;DHT22;4635;48.686;9.008;2022-12-07T05:42:26;1.20;1.00
9201;DHT22;4635;48.686;9.008;2022-12-07T05:45:19;1.10;1.00
9201;DHT22;4635;48.686;9.008;2022-12-07T05:48:26;1.00;1.00
9201;DHT22;4635;48.686;9.008;2022-12-07T05:51:12;0.90;1.00
9201;DHT22;4635;48.686;9.008;2022-12-07T06:16:13;0.90;1.00
9201;DHT22;4635;48.686;9.008;2022-12-07T06:23:03;1.00;1.00
9201;DHT22;4635;48.686;9.008;2022-12-07T06:26:10;1.00;1.00
9201;DHT22;4635;48.686;9.008;2022-12-07T18:01:11;2.40;99.90
9201;DHT22;4635;48.686;9.008;2022-12-07T18:04:21;2.30;1.00
9201;DHT22;4635;48.686;9.008;2022-12-07T18:07:36;2.30;1.00
9201;DHT22;4635;48.686;9.008;2022-12-07T18:10:43;2.30;1.00
9201;DHT22;4635;48.686;9.008;2022-12-07T18:13:32;2.30;1.00
9201;DHT22;4635;48.686;9.008;2022-12-07T19:23:48;1.60;99.90
9201;DHT22;4635;48.686;9.008;2022-12-07T19:30:36;1.60;1.00
9201;DHT22;4635;48.686;9.008;2022-12-07T19:33:38;1.60;99.90
9201;DHT22;4635;48.686;9.008;2022-12-07T19:36:50;1.80;1.00
9201;DHT22;4635;48.686;9.008;2022-12-07T19:46:07;1.70;1.00
9201;DHT22;4635;48.686;9.008;2022-12-07T19:48:49;1.70;1.00
9201;DHT22;4635;48.686;9.008;2022-12-07T19:51:34;1.70;1.00
9201;DHT22;4635;48.686;9.008;2022-12-07T19:54:21;1.70;9.20
9201;DHT22;4635;48.686;9.008;2022-12-07T19:57:03;1.70;1.00
9201;DHT22;4635;48.686;9.008;2022-12-07T20:06:35;1.70;1.00
9201;DHT22;4635;48.686;9.008;2022-12-07T20:09:22;1.80;1.00
9201;DHT22;4635;48.686;9.008;2022-12-07T20:12:05;1.70;1.00
9201;DHT22;4635;48.686;9.008;2022-12-07T20:15:00;1.80;1.00
9201;DHT22;4635;48.686;9.008;2022-12-07T20:18:08;1.70;1.00
9201;DHT22;4635;48.686;9.008;2022-12-07T20:20:52;1.30;1.00
9201;DHT22;4635;48.686;9.008;2022-12-07T20:27:05;1.60;1.00
9201;DHT22;4635;48.686;9.008;2022-12-07T20:29:52;1.60;1.00
9201;DHT22;4635;48.686;9.008;2022-12-07T20:33:17;1.60;99.90
9201;DHT22;4635;48.686;9.008;2022-12-07T20:36:42;1.60;99.90
9201;DHT22;4635;48.686;9.008;2022-12-07T20:39:14;1.50;98.50
9201;DHT22;4635;48.686;9.008;2022-12-07T20:42:18;1.60;99.90
9201;DHT22;4635;48.686;9.008;2022-12-07T20:45:07;1.50;99.90
9201;DHT22;4635;48.686;9.008;2022-12-07T20:47:58;1.50;41.40
9201;DHT22;4635;48.686;9.008;2022-12-07T20:50:47;1.40;99.90
9201;DHT22;4635;48.686;9.008;2022-12-07T20:53:38;1.50;99.90
9201;DHT22;4635;48.686;9.008;2022-12-07T20:56:29;1.40;99.90
9201;DHT22;4635;48.686;9.008;2022-12-07T20:59:15;1.50;1.00
9201;DHT22;4635;48.686;9.008;2022-12-07T21:01:57;1.40;1.00
9201;DHT22;4635;48.686;9.008;2022-12-07T21:04:36;1.40;99.90
9201;DHT22;4635;48.686;9.008;2022-12-07T21:07:22;1.30;99.90
9201;DHT22;4635;48.686;9.008;2022-12-07T21:09:57;1.20;99.90
9201;DHT22;4635;48.686;9.008;2022-12-07T21:12:44;1.30;1.00
9201;DHT22;4635;48.686;9.008;2022-12-07T21:18:46;1.20;1.00
9201;DHT22;4635;48.686;9.008;2022-12-07T21:21:31;1.20;99.90
9201;DHT22;4635;48.686;9.008;2022-12-07T21:24:20;1.10;1.00
9201;DHT22;4635;48.686;9.008;2022-12-07T21:27:05;1.10;99.90
9201;DHT22;4635;48.686;9.008;2022-12-07T21:29:54;1.00;55.30
9201;DHT22;4635;48.686;9.008;2022-12-07T21:32:43;1.00;99.90
9201;DHT22;4635;48.686;9.008;2022-12-07T21:35:45;1.10;99.90
9201;DHT22;4635;48.686;9.008;2022-12-07T21:38:45;1.20;46.80
9201;DHT22;4635;48.686;9.008;2022-12-07T21:45:19;0.90;1.00
9201;DHT22;4635;48.686;9.008;2022-12-07T22:05:04;1.30;1.00
9201;DHT22;4635;48.686;9.008;2022-12-07T22:07:55;1.30;1.00
9201;DHT22;4635;48.686;9.008;2022-12-07T22:10:39;1.20;1.00
9201;DHT22;4635;48.686;9.008;2022-12-07T22:13:24;1.30;1.00
9201;DHT22;4635;48.686;9.008;2022-12-07T22:16:32;1.20;1.00
9201;DHT22;4635;48.686;9.008;2022-12-07T22:19:04;1.20;99.90
9201;DHT22;4635;48.686;9.008;2022-12-07T22:21:46;1.20;1.00
9201;DHT22;4635;48.686;9.008;2022-12-07T22:24:27;1.10;1.00
9201;DHT22;4635;48.686;9.008;2022-12-07T22:27:06;1.20;91.20
9201;DHT22;4635;48.686;9.008;2022-12-07T22:29:41;0.90;99.90
9201;DHT22;4635;48.686;9.008;2022-12-07T22:35:53;0.80;99.90
9201;DHT22;4635;48.686;9.008;2022-12-07T22:38:36;0.70;1.00
9201;DHT22;4635;48.686;9.008;2022-12-07T22:41:23;-0.50;1.00
9201;DHT22;4635;48.686;9.008;2022-12-07T22:44:08;0.50;1.00
9201;DHT22;4635;48.686;9.008;2022-12-07T22:46:53;0.50;1.00
9201;DHT22;4635;48.686;9.008;2022-12-07T22:49:31;0.30;1.00
9201;DHT22;4635;48.686;9.008;2022-12-07T22:52:17;0.20;1.00
9201;DHT22;4635;48.686;9.008;2022-12-07T22:54:58;0.20;1.00
9201;DHT22;4635;48.686;9.008;2022-12-07T22:58:02;0.20;1.00
9201;DHT22;4635;48.686;9.008;2022-12-07T23:00:53;0.30;1.00
9201;DHT22;4635;48.686;9.008;2022-12-07T23:04:03;0.30;1.00
9201;DHT22;4635;48.686;9.008;2022-12-07T23:06:57;0.30;1.00
9201;DHT22;4635;48.686;9.008;2022-12-07T23:09:50;0.00;1.00
9201;DHT22;4635;48.686;9.008;2022-12-07T23:12:35;0.30;1.00
9201;DHT22;4635;48.686;9.008;2022-12-07T23:15:23;0.20;99.90
9201;DHT22;4635;48.686;9.008;2022-12-07T23:18:04;0.30;1.00
9201;DHT22;4635;48.686;9.008;2022-12-07T23:20:52;0.20;1.00
9201;DHT22;4635;48.686;9.008;2022-12-07T23:23:35;0.10;1.00
9201;DHT22;4635;48.686;9.008;2022-12-07T23:26:21;0.00;1.00
9201;DHT22;4635;48.686;9.008;2022-12-07T23:29:05;0.00;1.00
9201;DHT22;4635;48.686;9.008;2022-12-07T23:31:52;-0.10;1.00
9201;DHT22;4635;48.686;9.008;2022-12-07T23:34:39;-0.10;1.00
9201;DHT22;4635;48.686;9.008;2022-12-07T23:37:09;-0.20;1.00
9201;DHT22;4635;48.686;9.008;2022-12-07T23:39:46;-0.20;1.00
9201;DHT22;4635;48.686;9.008;2022-12-07T23:42:44;-0.30;1.00
9201;DHT22;4635;48.686;9.008;2022-12-07T23:45:30;-0.30;1.00
9201;DHT22;4635;48.686;9.008;2022-12-07T23:48:19;-0.30;1.00
9201;DHT22;4635;48.686;9.008;2022-12-07T23:51:00;-0.50;1.00
9201;DHT22;4635;48.686;9.008;2022-12-07T23:53:48;-0.40;6.80
9201;DHT22;4635;48.686;9.008;2022-12-07T23:56:28;-0.40;1.00
